Time;durP1;ratioP1;P1;durP2;ratioP2;P2;SDS_P1;SDS_P2;PMS_P1;PMS_P2;Temp;Humidity;BMP_temperature;BMP_pressure;BME280_temperature;BME280_humidity;BME280_pressure;Samples;Min_cycle;Max_cycle;Signal;HPM_P1;HPM_P2
2023/04/07 00:01:22;;;;;;;16.75;14.13;;;;;;;;;;5077266;28;20251;-68
2023/04/07 00:03:49;;;;;;;15.65;13.40;;;;;;;;;;5076755;28;20229;-68
2023/04/07 00:06:16;;;;;;;15.68;13.60;;;;;;;;;;5076797;28;20209;-68
2023/04/07 00:08:43;;;;;;;14.77;12.18;;;;;;;;;;5076691;28;20194;-68
2023/04/07 00:11:10;;;;;;;16.42;13.27;;;;;;;;;;5076563;28;20194;-68
2023/04/07 00:13:39;;;;;;;15.38;13.32;;;;;;;;;;5077007;28;20193;-69
2023/04/07 00:16:06;;;;;;;15.32;12.52;;;;;;;;;;5076902;28;20312;-68
2023/04/07 00:18:33;;;;;;;15.88;13.48;;;;;;;;;;5076917;28;20194;-69
2023/04/07 00:21:01;;;;;;;17.10;12.52;;;;;;;;;;5076157;28;20201;-68
2023/04/07 00:23:28;;;;;;;15.40;12.15;;;;;;;;;;5076490;28;20605;-68
2023/04/07 00:25:55;;;;;;;14.77;12.00;;;;;;;;;;5076429;28;20202;-68
2023/04/07 00:28:22;;;;;;;14.60;12.15;;;;;;;;;;5076422;28;20202;-68
2023/04/07 00:30:51;;;;;;;14.00;12.15;;;;;;;;;;5076345;28;20206;-69
2023/04/07 00:33:18;;;;;;;16.45;12.15;;;;;;;;;;5076701;28;20233;-69
2023/04/07 00:35:45;;;;;;;16.33;12.20;;;;;;;;;;5076177;28;20224;-69
2023/04/07 00:38:12;;;;;;;13.35;11.30;;;;;;;;;;5076259;28;20196;-68
2023/04/07 00:40:40;;;;;;;14.90;11.95;;;;;;;;;;5076118;28;20284;-68
2023/04/07 00:43:07;;;;;;;15.40;12.80;;;;;;;;;;5076173;28;20204;-68
2023/04/07 00:45:34;;;;;;;17.05;13.18;;;;;;;;;;5076291;28;20239;-68
2023/04/07 00:48:03;;;;;;;16.83;12.93;;;;;;;;;;5075208;28;20196;-68
2023/04/07 00:50:30;;;;;;;15.52;13.00;;;;;;;;;;5075956;28;20194;-68
2023/04/07 00:52:57;;;;;;;15.18;12.55;;;;;;;;;;5075696;28;20197;-68
2023/04/07 00:55:24;;;;;;;16.23;13.23;;;;;;;;;;5075897;28;20208;-68
2023/04/07 00:57:52;;;;;;;16.40;14.32;;;;;;;;;;5076246;28;20222;-68
2023/04/07 01:00:19;;;;;;;15.07;12.85;;;;;;;;;;5076048;28;20714;-68
2023/04/07 01:02:50;;;;;;;16.83;13.40;;;;;;;;;;5075494;28;20694;-68
2023/04/07 01:05:22;;;;;;;19.60;15.25;;;;;;;;;;5075330;28;20296;-68
2023/04/07 01:07:56;;;;;;;16.88;13.48;;;;;;;;;;5075926;28;20197;-68
2023/04/07 01:10:27;;;;;;;16.55;12.35;;;;;;;;;;5075677;28;20182;-69
2023/04/07 01:12:57;;;;;;;15.85;13.65;;;;;;;;;;5075823;28;20186;-68
2023/04/07 01:15:26;;;;;;;15.23;12.93;;;;;;;;;;5075766;28;20683;-69
2023/04/07 01:17:56;;;;;;;15.02;12.00;;;;;;;;;;5075117;28;20754;-69
2023/04/07 01:20:27;;;;;;;17.23;12.10;;;;;;;;;;5075343;28;20202;-68
2023/04/07 01:22:55;;;;;;;15.30;12.77;;;;;;;;;;5076028;28;20204;-68
2023/04/07 01:25:37;;;;;;;15.35;12.30;;;;;;;;;;5074973;28;20200;-69
2023/04/07 01:28:14;;;;;;;17.70;12.85;;;;;;;;;;5062770;28;20670;-68
2023/04/07 01:30:44;;;;;;;14.52;11.65;;;;;;;;;;5074981;28;20201;-68
2023/04/07 01:33:12;;;;;;;14.77;12.18;;;;;;;;;;5074931;28;20217;-68
2023/04/07 01:35:39;;;;;;;15.68;12.50;;;;;;;;;;5075122;28;20224;-68
2023/04/07 01:38:07;;;;;;;16.73;12.55;;;;;;;;;;5075006;28;20218;-68
2023/04/07 01:40:35;;;;;;;13.32;11.93;;;;;;;;;;5074880;28;20644;-69
2023/04/07 01:43:03;;;;;;;18.00;13.98;;;;;;;;;;5074964;28;20281;-68
2023/04/07 01:45:31;;;;;;;14.98;11.52;;;;;;;;;;5074877;28;20208;-69
2023/04/07 01:48:00;;;;;;;14.05;12.10;;;;;;;;;;5074551;28;20209;-69
2023/04/07 01:50:28;;;;;;;13.43;11.70;;;;;;;;;;5074520;28;20194;-69
2023/04/07 01:52:55;;;;;;;13.45;11.98;;;;;;;;;;5074651;28;20194;-69
2023/04/07 01:55:22;;;;;;;16.58;13.75;;;;;;;;;;5075054;28;20190;-69
2023/04/07 01:57:49;;;;;;;15.10;12.18;;;;;;;;;;5074980;28;20217;-68
2023/04/07 02:00:17;;;;;;;13.73;11.30;;;;;;;;;;5074214;28;20600;-69
2023/04/07 02:02:45;;;;;;;14.30;12.43;;;;;;;;;;5073931;28;20290;-69
2023/04/07 02:05:17;;;;;;;18.48;11.57;;;;;;;;;;5074558;28;20193;-69
2023/04/07 02:07:49;;;;;;;13.38;11.43;;;;;;;;;;5074650;28;20186;-68
2023/04/07 02:10:17;;;;;;;17.65;13.25;;;;;;;;;;5074022;28;20186;-68
2023/04/07 02:12:46;;;;;;;15.18;12.55;;;;;;;;;;5073902;28;20208;-69
2023/04/07 02:15:14;;;;;;;16.13;12.40;;;;;;;;;;5074227;28;20190;-69
2023/04/07 02:17:43;;;;;;;15.25;12.40;;;;;;;;;;5074259;28;20221;-68
2023/04/07 02:20:11;;;;;;;14.95;13.15;;;;;;;;;;5074805;28;20574;-70
2023/04/07 02:22:41;;;;;;;15.50;11.73;;;;;;;;;;5073913;28;20199;-68
2023/04/07 02:25:21;;;;;;;16.02;12.82;;;;;;;;;;5074386;28;20549;-68
2023/04/07 02:27:48;;;;;;;14.48;12.60;;;;;;;;;;5073810;28;20636;-69
2023/04/07 02:30:15;;;;;;;15.20;12.35;;;;;;;;;;5074180;28;20552;-69
2023/04/07 02:32:43;;;;;;;13.75;12.25;;;;;;;;;;5073499;28;20204;-69
2023/04/07 02:35:11;;;;;;;15.37;11.73;;;;;;;;;;5073538;28;20198;-68
2023/04/07 02:37:38;;;;;;;15.65;12.52;;;;;;;;;;5073762;28;20495;-69
2023/04/07 02:40:07;;;;;;;13.95;11.50;;;;;;;;;;5073576;28;20201;-69
2023/04/07 02:42:35;;;;;;;15.13;12.35;;;;;;;;;;5073774;28;20201;-68
2023/04/07 02:45:02;;;;;;;14.68;11.75;;;;;;;;;;5073520;28;20670;-68
2023/04/07 02:47:29;;;;;;;20.88;12.35;;;;;;;;;;5073308;28;20289;-69
2023/04/07 02:49:56;;;;;;;14.77;13.23;;;;;;;;;;5073339;28;20655;-70
2023/04/07 02:52:24;;;;;;;14.55;12.00;;;;;;;;;;5073682;28;20792;-68
2023/04/07 02:54:51;;;;;;;13.40;11.07;;;;;;;;;;5073346;28;20222;-68
2023/04/07 02:57:20;;;;;;;13.17;11.33;;;;;;;;;;5073504;28;20758;-68
2023/04/07 02:59:47;;;;;;;17.88;13.85;;;;;;;;;;5073554;28;20767;-69
2023/04/07 03:02:14;;;;;;;18.10;14.07;;;;;;;;;;5073121;28;20191;-69
2023/04/07 03:04:41;;;;;;;17.77;13.20;;;;;;;;;;5073306;28;20223;-68
2023/04/07 03:07:09;;;;;;;13.25;11.73;;;;;;;;;;5073466;28;20199;-69
2023/04/07 03:09:36;;;;;;;15.90;11.85;;;;;;;;;;5073240;28;20199;-68
2023/04/07 03:12:03;;;;;;;14.10;12.60;;;;;;;;;;5072895;28;20252;-69
2023/04/07 03:14:32;;;;;;;15.45;12.45;;;;;;;;;;5073131;28;20198;-68
2023/04/07 03:16:59;;;;;;;15.43;11.82;;;;;;;;;;5073263;28;20232;-68
2023/04/07 03:19:26;;;;;;;12.85;11.23;;;;;;;;;;5073853;28;20251;-69
2023/04/07 03:21:53;;;;;;;15.40;11.80;;;;;;;;;;5073282;28;20193;-69
2023/04/07 03:24:20;;;;;;;15.40;10.93;;;;;;;;;;5073459;28;20559;-69
2023/04/07 03:26:48;;;;;;;13.68;11.85;;;;;;;;;;5073319;28;20202;-68
2023/04/07 03:29:15;;;;;;;15.00;12.00;;;;;;;;;;5074119;28;20198;-68
2023/04/07 03:31:44;;;;;;;13.48;12.07;;;;;;;;;;5073653;28;20220;-69
2023/04/07 03:34:11;;;;;;;13.52;11.52;;;;;;;;;;5073472;28;20206;-68
2023/04/07 03:36:38;;;;;;;14.98;12.50;;;;;;;;;;5073515;28;20204;-70
2023/04/07 03:39:05;;;;;;;12.82;11.40;;;;;;;;;;5073553;28;20194;-68
2023/04/07 03:41:33;;;;;;;14.45;11.10;;;;;;;;;;5073408;28;20190;-68
2023/04/07 03:44:00;;;;;;;12.57;11.18;;;;;;;;;;5073553;28;20201;-68
2023/04/07 03:46:27;;;;;;;14.50;12.52;;;;;;;;;;5073118;28;20200;-68
2023/04/07 03:48:56;;;;;;;13.00;11.57;;;;;;;;;;5072812;28;20203;-68
2023/04/07 03:51:23;;;;;;;13.93;11.70;;;;;;;;;;5090236;28;20201;-67
2023/04/07 03:53:50;;;;;;;14.60;12.02;;;;;;;;;;5093199;28;20193;-68
2023/04/07 03:56:17;;;;;;;17.60;11.80;;;;;;;;;;5093626;28;20196;-68
2023/04/07 03:58:45;;;;;;;13.77;11.23;;;;;;;;;;5092807;28;20477;-68
2023/04/07 04:01:12;;;;;;;15.63;12.50;;;;;;;;;;5093517;28;20194;-68
2023/04/07 04:03:39;;;;;;;12.25;11.05;;;;;;;;;;5093179;28;20221;-68
2023/04/07 04:06:08;;;;;;;13.40;11.63;;;;;;;;;;5093179;28;20284;-68
2023/04/07 04:08:35;;;;;;;14.00;11.75;;;;;;;;;;5093354;28;20204;-68
2023/04/07 04:11:02;;;;;;;14.18;10.63;;;;;;;;;;5093199;28;20196;-68
2023/04/07 04:13:29;;;;;;;11.55;10.35;;;;;;;;;;5092978;28;20673;-68
2023/04/07 04:15:57;;;;;;;12.68;10.43;;;;;;;;;;5093218;28;20194;-70
2023/04/07 04:18:24;;;;;;;10.63;9.35;;;;;;;;;;5092963;28;20568;-68
2023/04/07 04:20:51;;;;;;;11.85;10.63;;;;;;;;;;5093079;28;20193;-69
2023/04/07 04:23:20;;;;;;;10.65;9.52;;;;;;;;;;5093514;28;20297;-68
2023/04/07 04:25:47;;;;;;;11.63;10.38;;;;;;;;;;5096681;28;20228;-69
2023/04/07 04:28:14;;;;;;;13.65;11.13;;;;;;;;;;5096346;28;20658;-77
2023/04/07 04:30:41;;;;;;;11.80;10.63;;;;;;;;;;5097020;28;20545;-70
2023/04/07 04:33:08;;;;;;;10.73;9.40;;;;;;;;;;5096426;28;20198;-69
2023/04/07 04:35:36;;;;;;;11.85;10.25;;;;;;;;;;5097295;28;20197;-70
2023/04/07 04:38:03;;;;;;;11.15;9.88;;;;;;;;;;5096364;28;20248;-70
2023/04/07 04:40:31;;;;;;;11.63;10.52;;;;;;;;;;5096116;28;20199;-70
2023/04/07 04:42:59;;;;;;;11.20;9.85;;;;;;;;;;5096506;28;20200;-70
2023/04/07 04:45:26;;;;;;;11.40;9.68;;;;;;;;;;5096386;28;20284;-70
2023/04/07 04:47:53;;;;;;;12.85;10.35;;;;;;;;;;5095931;28;20202;-70
2023/04/07 04:50:20;;;;;;;13.27;9.80;;;;;;;;;;5096167;28;20197;-70
2023/04/07 04:52:48;;;;;;;11.98;9.68;;;;;;;;;;5095837;28;20189;-70
2023/04/07 04:55:15;;;;;;;12.68;9.77;;;;;;;;;;5096193;28;20193;-70
2023/04/07 04:57:44;;;;;;;11.15;9.23;;;;;;;;;;5095903;28;20299;-71
2023/04/07 05:00:11;;;;;;;10.65;9.55;;;;;;;;;;5096227;28;20701;-70
2023/04/07 05:02:39;;;;;;;9.90;8.32;;;;;;;;;;5095679;28;20225;-70
2023/04/07 05:05:07;;;;;;;10.68;9.55;;;;;;;;;;5095706;28;20647;-70
2023/04/07 05:07:34;;;;;;;10.60;8.68;;;;;;;;;;5095556;28;20193;-70
2023/04/07 05:10:01;;;;;;;9.85;8.85;;;;;;;;;;5095470;28;20197;-70
2023/04/07 05:12:29;;;;;;;13.82;9.05;;;;;;;;;;5096049;28;20262;-70
2023/04/07 05:14:57;;;;;;;13.27;10.00;;;;;;;;;;5095394;28;20204;-70
2023/04/07 05:17:24;;;;;;;12.77;9.93;;;;;;;;;;5095678;28;20217;-70
2023/04/07 05:19:51;;;;;;;11.82;10.63;;;;;;;;;;5095623;28;20205;-70
2023/04/07 05:22:19;;;;;;;10.65;9.60;;;;;;;;;;5096099;28;20200;-70
2023/04/07 05:24:46;;;;;;;11.32;9.75;;;;;;;;;;5095544;28;20196;-70
2023/04/07 05:27:13;;;;;;;9.73;8.57;;;;;;;;;;5095483;28;20193;-70
2023/04/07 05:29:40;;;;;;;11.98;9.10;;;;;;;;;;5095559;28;20189;-69
2023/04/07 05:32:09;;;;;;;11.60;10.40;;;;;;;;;;5095137;28;20196;-70
2023/04/07 05:34:36;;;;;;;10.05;9.05;;;;;;;;;;5095269;28;20256;-69
2023/04/07 05:37:03;;;;;;;10.90;9.57;;;;;;;;;;5094926;28;20190;-70
2023/04/07 05:39:30;;;;;;;9.87;8.87;;;;;;;;;;5095251;28;20206;-69
2023/04/07 05:41:57;;;;;;;12.32;9.50;;;;;;;;;;5095450;28;20959;-69
2023/04/07 05:44:25;;;;;;;11.10;9.52;;;;;;;;;;5095110;28;20197;-69
2023/04/07 05:46:52;;;;;;;12.80;10.63;;;;;;;;;;5095242;28;20554;-69
2023/04/07 05:49:20;;;;;;;12.75;9.20;;;;;;;;;;5095069;28;20555;-69
2023/04/07 05:51:48;;;;;;;10.80;9.70;;;;;;;;;;5095593;28;20193;-68
2023/04/07 05:54:15;;;;;;;11.77;9.70;;;;;;;;;;5094891;28;20204;-69
2023/04/07 05:56:42;;;;;;;12.15;9.98;;;;;;;;;;5095074;28;20194;-69
2023/04/07 05:59:09;;;;;;;11.43;10.23;;;;;;;;;;5094808;28;20228;-69
2023/04/07 06:01:37;;;;;;;12.40;10.18;;;;;;;;;;5095000;28;20193;-69
2023/04/07 06:04:04;;;;;;;9.55;8.55;;;;;;;;;;5094361;28;20229;-70
2023/04/07 06:06:32;;;;;;;10.77;9.50;;;;;;;;;;5094438;28;20664;-69
2023/04/07 06:08:59;;;;;;;12.00;10.68;;;;;;;;;;5094341;28;20193;-69
2023/04/07 06:11:27;;;;;;;11.70;10.50;;;;;;;;;;5094271;28;20194;-69
2023/04/07 06:13:54;;;;;;;11.30;10.13;;;;;;;;;;5094545;28;20292;-69
2023/04/07 06:16:21;;;;;;;11.40;9.60;;;;;;;;;;5094608;28;20194;-69
2023/04/07 06:18:48;;;;;;;12.07;10.27;;;;;;;;;;5094409;28;20228;-69
2023/04/07 06:21:16;;;;;;;9.77;8.45;;;;;;;;;;5094375;28;20269;-69
2023/04/07 06:23:44;;;;;;;12.57;10.55;;;;;;;;;;5094311;28;20199;-69
2023/04/07 06:26:18;;;;;;;11.25;10.15;;;;;;;;;;5094392;28;20197;-69
2023/04/07 06:28:45;;;;;;;13.27;11.23;;;;;;;;;;5094723;28;20273;-69
2023/04/07 06:31:12;;;;;;;11.75;10.57;;;;;;;;;;5094324;28;20215;-69
2023/04/07 06:33:40;;;;;;;12.20;10.32;;;;;;;;;;5094579;28;20197;-69
2023/04/07 06:36:07;;;;;;;10.13;9.02;;;;;;;;;;5094211;28;20200;-69
2023/04/07 06:38:34;;;;;;;10.43;9.15;;;;;;;;;;5094086;28;20309;-69
2023/04/07 06:41:03;;;;;;;11.48;8.65;;;;;;;;;;5094076;28;20197;-69
2023/04/07 06:43:30;;;;;;;11.60;9.95;;;;;;;;;;5094364;28;20532;-69
2023/04/07 06:45:57;;;;;;;12.43;8.93;;;;;;;;;;5093403;28;20196;-69
2023/04/07 06:48:24;;;;;;;12.23;8.90;;;;;;;;;;5093731;28;20197;-69
2023/04/07 06:50:52;;;;;;;12.95;9.90;;;;;;;;;;5093904;28;20562;-69
2023/04/07 06:53:19;;;;;;;10.85;9.27;;;;;;;;;;5093545;28;20665;-69
2023/04/07 06:55:46;;;;;;;11.27;9.65;;;;;;;;;;5093844;28;20194;-69
2023/04/07 06:58:15;;;;;;;8.80;7.95;;;;;;;;;;5093960;28;20225;-69
2023/04/07 07:00:42;;;;;;;10.77;9.68;;;;;;;;;;5093415;28;20208;-69
2023/04/07 07:03:09;;;;;;;10.05;9.00;;;;;;;;;;5092961;28;20225;-68
2023/04/07 07:05:36;;;;;;;8.73;7.75;;;;;;;;;;5093393;28;20198;-69
2023/04/07 07:08:04;;;;;;;10.47;9.40;;;;;;;;;;5093487;28;20194;-68
2023/04/07 07:10:31;;;;;;;9.57;8.63;;;;;;;;;;5093308;28;20444;-69
2023/04/07 07:12:59;;;;;;;11.80;9.32;;;;;;;;;;5094051;28;20773;-71
2023/04/07 07:15:28;;;;;;;9.57;8.50;;;;;;;;;;5093686;28;20238;-78
2023/04/07 07:17:55;;;;;;;10.80;9.67;;;;;;;;;;5093488;28;20220;-73
2023/04/07 07:20:24;;;;;;;9.30;8.32;;;;;;;;;;5093361;28;20454;-73
2023/04/07 07:22:51;;;;;;;10.95;9.05;;;;;;;;;;5093575;28;20197;-73
2023/04/07 07:25:19;;;;;;;10.45;9.20;;;;;;;;;;5093348;28;20288;-74
2023/04/07 07:27:46;;;;;;;10.68;9.35;;;;;;;;;;5093644;28;20213;-71
2023/04/07 07:30:13;;;;;;;8.82;7.93;;;;;;;;;;5093589;28;20189;-71
2023/04/07 07:32:42;;;;;;;9.00;7.70;;;;;;;;;;5093171;28;20678;-71
2023/04/07 07:35:09;;;;;;;10.50;9.40;;;;;;;;;;5093725;28;20200;-72
2023/04/07 07:37:36;;;;;;;9.93;8.52;;;;;;;;;;5092490;28;20202;-72
2023/04/07 07:40:04;;;;;;;9.40;8.25;;;;;;;;;;5093677;28;20221;-72
2023/04/07 07:42:31;;;;;;;9.32;8.45;;;;;;;;;;5093591;28;20189;-71
2023/04/07 07:44:58;;;;;;;9.25;8.45;;;;;;;;;;5093554;28;20292;-72
2023/04/07 07:47:26;;;;;;;11.10;7.97;;;;;;;;;;5093370;28;20194;-72
2023/04/07 07:49:54;;;;;;;10.00;8.90;;;;;;;;;;5093464;28;20542;-71
2023/04/07 07:52:21;;;;;;;9.90;8.97;;;;;;;;;;5086950;28;20640;-70
2023/04/07 07:54:49;;;;;;;9.90;8.90;;;;;;;;;;5073155;28;20437;-72
2023/04/07 07:57:16;;;;;;;8.93;8.02;;;;;;;;;;5073579;28;20202;-72
2023/04/07 07:59:43;;;;;;;9.43;8.50;;;;;;;;;;5077079;28;20229;-73
2023/04/07 08:02:11;;;;;;;9.30;8.38;;;;;;;;;;5076632;28;20621;-72
2023/04/07 08:04:38;;;;;;;9.23;8.43;;;;;;;;;;5077384;28;20226;-71
2023/04/07 08:07:06;;;;;;;9.83;8.87;;;;;;;;;;5076555;28;20503;-73
2023/04/07 08:09:34;;;;;;;10.77;9.67;;;;;;;;;;5076729;28;20441;-72
2023/04/07 08:12:02;;;;;;;36.92;28.40;;;;;;;;;;5076587;28;20531;-71
2023/04/07 08:14:29;;;;;;;9.00;8.10;;;;;;;;;;5076950;28;20535;-73
2023/04/07 08:16:56;;;;;;;10.70;8.73;;;;;;;;;;5076528;28;20448;-74
2023/04/07 08:19:23;;;;;;;8.52;7.57;;;;;;;;;;5076108;28;20219;-73
2023/04/07 08:21:50;;;;;;;9.90;8.60;;;;;;;;;;5076505;28;20566;-70
2023/04/07 08:24:19;;;;;;;8.73;7.90;;;;;;;;;;5076437;28;20448;-71
2023/04/07 08:26:46;;;;;;;9.07;8.15;;;;;;;;;;5076622;28;20199;-72
2023/04/07 08:29:14;;;;;;;9.00;8.10;;;;;;;;;;5076411;28;20564;-73
2023/04/07 08:31:41;;;;;;;8.27;7.47;;;;;;;;;;5076272;28;20223;-72
2023/04/07 08:34:08;;;;;;;8.00;7.20;;;;;;;;;;5075812;28;20194;-73
2023/04/07 08:36:35;;;;;;;9.90;8.30;;;;;;;;;;5082661;28;20450;-73
2023/04/07 08:39:04;;;;;;;9.57;8.00;;;;;;;;;;5096324;28;20217;-72
2023/04/07 08:41:36;;;;;;;8.25;7.25;;;;;;;;;;5096856;28;20554;-72
2023/04/07 08:44:03;;;;;;;13.27;11.77;;;;;;;;;;5096632;28;20280;-72
2023/04/07 08:46:31;;;;;;;9.52;8.43;;;;;;;;;;5096224;28;20434;-72
2023/04/07 08:48:58;;;;;;;9.38;7.90;;;;;;;;;;5096603;28;20205;-72
2023/04/07 08:51:28;;;;;;;11.60;8.60;;;;;;;;;;5095996;28;20555;-73
2023/04/07 08:53:58;;;;;;;9.20;8.30;;;;;;;;;;5096156;28;20443;-72
2023/04/07 08:56:26;;;;;;;8.83;7.93;;;;;;;;;;5095787;28;20276;-73
2023/04/07 08:58:55;;;;;;;9.17;7.90;;;;;;;;;;5095693;28;21004;-72
2023/04/07 09:01:23;;;;;;;8.87;7.97;;;;;;;;;;5095588;28;20458;-73
2023/04/07 09:03:50;;;;;;;10.77;7.50;;;;;;;;;;5095661;28;20473;-73
2023/04/07 09:06:17;;;;;;;8.50;7.70;;;;;;;;;;5095716;28;20454;-74
2023/04/07 09:08:44;;;;;;;8.82;7.78;;;;;;;;;;5095189;28;20448;-72
2023/04/07 09:11:12;;;;;;;10.50;7.90;;;;;;;;;;5095325;28;20190;-72
2023/04/07 09:13:39;;;;;;;10.17;7.70;;;;;;;;;;5095401;28;20193;-72
2023/04/07 09:16:08;;;;;;;8.82;7.30;;;;;;;;;;5095438;28;20448;-72
2023/04/07 09:18:35;;;;;;;7.32;6.63;;;;;;;;;;5095554;28;20242;-72
2023/04/07 09:21:04;;;;;;;8.52;7.15;;;;;;;;;;5095348;28;20300;-72
2023/04/07 09:23:32;;;;;;;8.63;7.70;;;;;;;;;;5095483;28;20191;-72
2023/04/07 09:26:00;;;;;;;8.50;7.00;;;;;;;;;;5095222;28;20448;-72
2023/04/07 09:28:38;;;;;;;8.37;7.47;;;;;;;;;;5095329;28;20442;-73
2023/04/07 09:31:06;;;;;;;7.80;7.00;;;;;;;;;;5095256;28;20412;-72
2023/04/07 09:33:41;;;;;;;7.65;6.80;;;;;;;;;;5095407;28;20253;-72
2023/04/07 09:36:09;;;;;;;8.18;7.38;;;;;;;;;;5095270;28;20193;-72
2023/04/07 09:38:36;;;;;;;7.40;6.50;;;;;;;;;;5095121;28;20665;-72
2023/04/07 09:41:07;;;;;;;7.13;6.43;;;;;;;;;;5095322;28;20802;-72
2023/04/07 09:43:36;;;;;;;13.23;11.87;;;;;;;;;;5094825;28;20436;-72
2023/04/07 09:46:13;;;;;;;13.30;11.47;;;;;;;;;;5094732;28;20504;-72
2023/04/07 09:48:42;;;;;;;8.27;7.47;;;;;;;;;;5094563;28;20449;-72
2023/04/07 09:51:10;;;;;;;8.40;6.87;;;;;;;;;;5094696;28;20201;-72
2023/04/07 09:53:48;;;;;;;7.10;6.40;;;;;;;;;;5094535;28;20470;-72
2023/04/07 09:56:16;;;;;;;8.60;6.50;;;;;;;;;;5094681;28;20916;-72
2023/04/07 09:58:44;;;;;;;8.30;7.50;;;;;;;;;;5094669;28;20201;-72
2023/04/07 10:01:12;;;;;;;8.63;6.43;;;;;;;;;;5094804;28;20237;-72
2023/04/07 10:03:40;;;;;;;6.80;6.20;;;;;;;;;;5094825;28;20313;-72
2023/04/07 10:06:09;;;;;;;7.83;7.03;;;;;;;;;;5094041;28;20650;-71
2023/04/07 10:08:37;;;;;;;9.13;6.93;;;;;;;;;;5094297;28;20447;-72
2023/04/07 10:11:05;;;;;;;9.93;7.32;;;;;;;;;;5094543;28;20447;-72
2023/04/07 10:13:33;;;;;;;10.10;7.90;;;;;;;;;;5094231;28;20714;-71
2023/04/07 10:16:03;;;;;;;8.63;7.03;;;;;;;;;;5094261;28;20805;-72
2023/04/07 10:18:31;;;;;;;8.10;7.20;;;;;;;;;;5094563;28;20436;-73
2023/04/07 10:21:00;;;;;;;8.80;6.50;;;;;;;;;;5093480;28;20479;-71
2023/04/07 10:23:35;;;;;;;6.77;6.00;;;;;;;;;;5093995;28;20443;-71
2023/04/07 10:26:03;;;;;;;5.80;5.30;;;;;;;;;;5094101;28;20423;-71
2023/04/07 10:28:31;;;;;;;5.45;5.00;;;;;;;;;;5094298;28;20280;-71
2023/04/07 10:30:59;;;;;;;5.50;5.00;;;;;;;;;;5093977;28;20197;-71
2023/04/07 10:33:44;;;;;;;5.43;4.83;;;;;;;;;;5093930;28;20436;-71
2023/04/07 10:36:12;;;;;;;6.53;5.60;;;;;;;;;;5084266;28;20445;-72
2023/04/07 10:38:41;;;;;;;5.60;5.03;;;;;;;;;;5093529;28;20447;-71
2023/04/07 10:41:26;;;;;;;6.13;5.30;;;;;;;;;;5093857;28;20806;-72
2023/04/07 10:43:53;;;;;;;7.30;5.70;;;;;;;;;;5093540;28;20435;-72
2023/04/07 10:46:20;;;;;;;6.40;5.47;;;;;;;;;;5093595;28;20448;-72
2023/04/07 10:49:08;;;;;;;5.50;5.00;;;;;;;;;;5093556;28;20445;-72
2023/04/07 10:51:36;;;;;;;6.20;4.90;;;;;;;;;;5094372;28;20869;-71
2023/04/07 10:54:19;;;;;;;5.97;5.07;;;;;;;;;;5094013;28;20898;-71
2023/04/07 10:57:09;;;;;;;4.97;4.57;;;;;;;;;;5093592;28;20435;-71
2023/04/07 10:59:36;;;;;;;4.73;4.30;;;;;;;;;;5093379;28;20696;-71
2023/04/07 11:02:22;;;;;;;5.20;4.37;;;;;;;;;;5093494;28;20454;-71
2023/04/07 11:04:49;;;;;;;4.57;4.17;;;;;;;;;;5093448;28;20462;-71
2023/04/07 11:07:18;;;;;;;4.47;4.07;;;;;;;;;;5093625;28;20460;-71
2023/04/07 11:09:46;;;;;;;5.80;4.53;;;;;;;;;;5093570;28;20448;-70
2023/04/07 11:12:25;;;;;;;4.60;4.30;;;;;;;;;;5093678;28;20439;-71
2023/04/07 11:14:52;;;;;;;5.07;3.70;;;;;;;;;;5093325;28;20492;-72
2023/04/07 11:17:20;;;;;;;4.50;4.10;;;;;;;;;;5093390;28;20952;-71
2023/04/07 11:19:53;;;;;;;4.37;3.97;;;;;;;;;;5093727;28;20475;-71
2023/04/07 11:22:20;;;;;;;5.57;4.80;;;;;;;;;;5094154;28;20471;-71
2023/04/07 11:24:47;;;;;;;4.63;4.23;;;;;;;;;;5093124;28;20451;-71
2023/04/07 11:27:15;;;;;;;6.10;4.40;;;;;;;;;;5093680;28;20479;-71
2023/04/07 11:29:43;;;;;;;4.40;3.57;;;;;;;;;;5093343;28;20449;-71
2023/04/07 11:32:11;;;;;;;5.17;4.30;;;;;;;;;;5093837;28;20450;-71
2023/04/07 11:34:39;;;;;;;5.80;3.90;;;;;;;;;;5097733;28;20835;-71
2023/04/07 11:37:19;;;;;;;4.07;3.70;;;;;;;;;;5097567;28;20435;-71
2023/04/07 11:39:52;;;;;;;4.93;3.70;;;;;;;;;;5097548;28;20463;-72
2023/04/07 11:42:31;;;;;;;3.87;3.50;;;;;;;;;;5097890;28;20425;-71
2023/04/07 11:45:01;;;;;;;4.23;3.83;;;;;;;;;;5097692;28;20436;-71
2023/04/07 11:47:35;;;;;;;4.40;4.10;;;;;;;;;;5097431;28;20431;-71
2023/04/07 11:50:02;;;;;;;4.87;4.47;;;;;;;;;;5097318;28;20431;-71
2023/04/07 11:52:30;;;;;;;4.93;4.53;;;;;;;;;;5097034;28;20448;-71
2023/04/07 11:54:59;;;;;;;4.13;3.80;;;;;;;;;;5096952;28;20440;-71
2023/04/07 11:57:26;;;;;;;7.63;4.60;;;;;;;;;;5097556;28;20826;-71
2023/04/07 12:00:07;;;;;;;4.10;3.70;;;;;;;;;;5097160;28;20478;-71
2023/04/07 12:02:35;;;;;;;3.73;3.43;;;;;;;;;;5097564;28;20837;-71
2023/04/07 12:05:03;;;;;;;3.50;3.20;;;;;;;;;;5097215;28;20447;-71
2023/04/07 12:07:30;;;;;;;4.03;3.67;;;;;;;;;;5096786;28;20497;-71
2023/04/07 12:09:57;;;;;;;4.90;3.33;;;;;;;;;;5097244;28;20449;-72
2023/04/07 12:12:28;;;;;;;3.97;3.67;;;;;;;;;;5096741;28;20435;-71
2023/04/07 12:14:56;;;;;;;3.77;3.47;;;;;;;;;;5096871;28;20439;-71
2023/04/07 12:17:25;;;;;;;3.83;3.57;;;;;;;;;;5096631;28;20976;-71
2023/04/07 12:19:52;;;;;;;2.83;2.63;;;;;;;;;;5096624;28;20506;-70
2023/04/07 12:22:19;;;;;;;4.13;3.57;;;;;;;;;;5096430;28;20535;-71
2023/04/07 12:24:46;;;;;;;3.13;2.83;;;;;;;;;;5097058;28;20938;-71
2023/04/07 12:27:14;;;;;;;3.47;3.17;;;;;;;;;;5096761;28;20450;-71
2023/04/07 12:29:42;;;;;;;3.80;3.50;;;;;;;;;;5096235;28;21009;-71
2023/04/07 12:32:09;;;;;;;3.33;3.10;;;;;;;;;;5096979;28;20975;-71
2023/04/07 12:34:38;;;;;;;4.27;3.90;;;;;;;;;;5096733;28;20454;-71
2023/04/07 12:37:06;;;;;;;3.63;3.33;;;;;;;;;;5096352;28;20447;-71
2023/04/07 12:39:33;;;;;;;3.90;3.60;;;;;;;;;;5095962;28;20930;-71
2023/04/07 12:42:00;;;;;;;4.43;4.03;;;;;;;;;;5096081;28;20925;-71
2023/04/07 12:44:27;;;;;;;4.30;3.90;;;;;;;;;;5094708;28;20932;-71
2023/04/07 12:46:55;;;;;;;4.40;3.93;;;;;;;;;;5096187;28;20538;-71
2023/04/07 12:49:22;;;;;;;5.03;4.63;;;;;;;;;;5096237;28;20436;-71
2023/04/07 12:51:51;;;;;;;4.30;3.90;;;;;;;;;;5096125;28;20876;-71
2023/04/07 12:54:18;;;;;;;4.83;4.20;;;;;;;;;;5095862;28;20435;-71
2023/04/07 12:56:45;;;;;;;5.40;4.60;;;;;;;;;;5095718;28;20447;-71
2023/04/07 12:59:13;;;;;;;5.30;4.90;;;;;;;;;;5096057;28;20462;-71
2023/04/07 13:01:40;;;;;;;4.93;4.43;;;;;;;;;;5095784;28;20561;-71
2023/04/07 13:04:07;;;;;;;4.80;4.40;;;;;;;;;;5095470;28;20474;-71
2023/04/07 13:06:34;;;;;;;4.60;4.20;;;;;;;;;;5095558;28;20941;-71
2023/04/07 13:09:03;;;;;;;4.83;3.77;;;;;;;;;;5095894;28;20535;-71
2023/04/07 13:11:30;;;;;;;4.70;4.03;;;;;;;;;;5095717;28;20439;-71
2023/04/07 13:13:57;;;;;;;4.27;3.87;;;;;;;;;;5095813;28;20493;-71
2023/04/07 13:16:24;;;;;;;5.60;4.50;;;;;;;;;;5095697;28;20440;-71
2023/04/07 13:18:52;;;;;;;4.97;4.53;;;;;;;;;;5095946;28;20439;-71
2023/04/07 13:21:19;;;;;;;3.30;3.10;;;;;;;;;;5095130;28;20557;-71
2023/04/07 13:23:47;;;;;;;3.50;3.30;;;;;;;;;;5095260;28;20448;-71
2023/04/07 13:26:15;;;;;;;3.83;3.23;;;;;;;;;;5095207;28;20452;-71
2023/04/07 13:28:44;;;;;;;3.63;3.37;;;;;;;;;;5095519;28;20447;-71
2023/04/07 13:31:14;;;;;;;3.60;3.30;;;;;;;;;;5095525;28;20536;-71
2023/04/07 13:33:41;;;;;;;2.77;2.57;;;;;;;;;;5095032;28;20450;-71
2023/04/07 13:36:09;;;;;;;3.50;3.20;;;;;;;;;;5094951;28;20526;-71
2023/04/07 13:38:36;;;;;;;3.23;3.03;;;;;;;;;;5095358;28;20498;-71
2023/04/07 13:41:03;;;;;;;3.40;3.20;;;;;;;;;;5094765;28;20568;-71
2023/04/07 13:43:32;;;;;;;3.80;3.50;;;;;;;;;;5095335;28;20485;-71
2023/04/07 13:45:59;;;;;;;3.50;3.20;;;;;;;;;;5094858;28;20441;-71
2023/04/07 13:48:26;;;;;;;3.77;3.47;;;;;;;;;;5094737;28;20933;-71
2023/04/07 13:50:53;;;;;;;3.63;3.33;;;;;;;;;;5095116;28;20467;-71
2023/04/07 13:53:20;;;;;;;3.70;3.40;;;;;;;;;;5094982;28;20434;-71
2023/04/07 13:55:48;;;;;;;3.03;2.80;;;;;;;;;;5094686;28;20447;-71
2023/04/07 13:58:15;;;;;;;3.13;2.87;;;;;;;;;;5095629;28;20471;-71
2023/04/07 14:00:44;;;;;;;3.53;3.27;;;;;;;;;;5094351;28;20491;-71
2023/04/07 14:03:11;;;;;;;3.60;3.30;;;;;;;;;;5094455;28;20986;-71
2023/04/07 14:05:38;;;;;;;3.70;3.40;;;;;;;;;;5094724;28;20440;-71
2023/04/07 14:08:11;;;;;;;3.00;2.80;;;;;;;;;;5094416;28;20441;-71
2023/04/07 14:10:40;;;;;;;3.87;3.47;;;;;;;;;;5094944;28;20433;-72
2023/04/07 14:13:08;;;;;;;3.63;3.30;;;;;;;;;;5094622;28;20440;-71
2023/04/07 14:15:35;;;;;;;3.93;3.63;;;;;;;;;;5094564;28;20453;-73
2023/04/07 14:18:03;;;;;;;4.10;3.57;;;;;;;;;;5093791;28;20443;-71
2023/04/07 14:20:31;;;;;;;3.83;3.40;;;;;;;;;;5094329;28;20477;-71
2023/04/07 14:22:58;;;;;;;4.23;3.93;;;;;;;;;;5094337;28;20451;-71
2023/04/07 14:25:25;;;;;;;3.17;2.97;;;;;;;;;;5094068;28;20530;-71
2023/04/07 14:27:53;;;;;;;3.20;3.00;;;;;;;;;;5093936;28;20493;-71
2023/04/07 14:30:20;;;;;;;3.50;3.20;;;;;;;;;;5094561;28;20439;-71
2023/04/07 14:32:47;;;;;;;4.00;3.47;;;;;;;;;;5094101;28;20436;-71
2023/04/07 14:35:16;;;;;;;3.93;3.13;;;;;;;;;;5094517;28;20493;-71
2023/04/07 14:37:43;;;;;;;3.20;3.00;;;;;;;;;;5094037;28;20864;-71